Time;durP1;ratioP1;P1;durP2;ratioP2;P2;SDS_P1;SDS_P2;PMS_P1;PMS_P2;Temp;Humidity;BMP_temperature;BMP_pressure;BME280_temperature;BME280_humidity;BME280_pressure;Samples;Min_cycle;Max_cycle;Signal;HPM_P1;HPM_P2
2023/05/03 00:00:09;;;;;;;3.70;2.00;;;;;;;11.79;47.51;101706.36;107483;1242;59239;-69
2023/05/03 00:02:57;;;;;;;4.90;1.60;;;;;;;11.70;47.52;101707.42;107520;1238;73724;-69
2023/05/03 00:05:26;;;;;;;5.80;1.80;;;;;;;11.64;47.59;101701.16;107565;1242;61539;-69
2023/05/03 00:07:55;;;;;;;4.00;1.90;;;;;;;11.60;47.24;101702.80;107568;1251;61275;-69
2023/05/03 00:10:24;;;;;;;2.90;1.70;;;;;;;11.62;47.38;101698.32;107488;1251;73498;-69
2023/05/03 00:12:54;;;;;;;3.40;1.90;;;;;;;11.54;47.72;101701.77;107630;1242;61545;-70
2023/05/03 00:15:23;;;;;;;6.30;1.90;;;;;;;11.41;48.06;101701.16;107628;1241;60811;-71
2023/05/03 00:17:52;;;;;;;5.60;1.90;;;;;;;11.32;48.11;101695.63;110010;1239;62774;-70
2023/05/03 00:20:21;;;;;;;2.90;1.80;;;;;;;11.20;48.51;101691.98;110003;1240;60379;-70
2023/05/03 00:22:50;;;;;;;3.00;1.70;;;;;;;11.11;49.10;101693.72;110032;1238;61584;-70
2023/05/03 00:25:19;;;;;;;3.80;2.20;;;;;;;11.06;48.85;101692.08;110060;1240;62723;-70
2023/05/03 00:27:48;;;;;;;7.50;2.00;;;;;;;11.04;48.77;101688.17;109812;1238;72145;-70
2023/05/03 00:30:18;;;;;;;2.90;2.00;;;;;;;11.04;48.63;101687.30;110061;1238;61668;-70
2023/05/03 00:32:47;;;;;;;3.90;1.90;;;;;;;11.04;47.88;101681.21;109996;1238;72212;-71
2023/05/03 00:35:16;;;;;;;4.40;2.10;;;;;;;11.07;47.53;101675.64;109997;1240;59727;-70
2023/05/03 00:37:44;;;;;;;3.50;1.80;;;;;;;11.08;47.28;101675.42;109949;1238;60846;-71
2023/05/03 00:40:17;;;;;;;5.70;2.10;;;;;;;11.19;46.65;101677.77;109987;1238;62665;-69
2023/05/03 00:42:46;;;;;;;2.80;1.90;;;;;;;11.31;46.70;101678.08;110107;1240;60616;-69
2023/05/03 00:45:14;;;;;;;5.30;1.90;;;;;;;11.37;46.78;101675.60;109971;1238;70487;-70
2023/05/03 00:47:43;;;;;;;3.20;1.80;;;;;;;11.36;46.99;101676.15;110044;1238;64435;-70
2023/05/03 00:50:13;;;;;;;3.70;2.00;;;;;;;11.28;47.34;101672.48;109800;1243;62051;-70
2023/05/03 00:52:42;;;;;;;4.50;1.80;;;;;;;11.17;48.31;101673.70;109902;1238;61764;-70
2023/05/03 00:55:11;;;;;;;5.20;2.10;;;;;;;11.05;48.82;101669.13;109934;1238;73286;-70
2023/05/03 00:57:39;;;;;;;3.60;1.80;;;;;;;10.91;49.32;101674.18;109950;1241;62871;-69
2023/05/03 01:00:09;;;;;;;5.50;1.90;;;;;;;10.78;50.14;101670.20;109914;1238;60261;-69
2023/05/03 01:02:38;;;;;;;3.60;1.90;;;;;;;10.65;50.56;101668.34;110032;1238;62312;-70
2023/05/03 01:05:08;;;;;;;2.10;1.60;;;;;;;10.49;51.77;101670.62;110053;1241;57166;-70
2023/05/03 01:07:58;;;;;;;5.70;1.80;;;;;;;10.37;51.69;101672.73;110031;1238;61153;-70
2023/05/03 01:10:47;;;;;;;4.60;2.00;;;;;;;10.19;51.99;101669.01;109844;1238;73947;-70
2023/05/03 01:14:15;;;;;;;4.90;2.40;;;;;;;10.02;52.82;101665.91;110049;1238;62148;-70
2023/05/03 01:16:53;;;;;;;4.80;2.10;;;;;;;9.84;53.05;101664.11;109605;1244;59795;-70
2023/05/03 01:19:34;;;;;;;3.60;2.00;;;;;;;9.74;54.61;101669.22;109506;1244;73894;-70
2023/05/03 01:22:22;;;;;;;3.60;1.90;;;;;;;9.65;53.21;101668.30;109820;1238;61386;-70
2023/05/03 01:25:10;;;;;;;5.10;1.90;;;;;;;9.57;53.01;101665.92;110062;1238;60919;-70
2023/05/03 01:27:40;;;;;;;4.40;2.00;;;;;;;9.50;53.34;101667.00;109963;1238;63238;-69
2023/05/03 01:30:12;;;;;;;3.80;2.10;;;;;;;9.44;54.62;101669.38;110078;1238;61794;-69
2023/05/03 01:33:08;;;;;;;4.10;1.90;;;;;;;9.39;55.54;101668.29;109798;1238;68901;-70
2023/05/03 01:35:53;;;;;;;6.40;2.20;;;;;;;9.31;56.27;101664.36;109924;1238;63048;-69
2023/05/03 01:38:22;;;;;;;5.30;2.10;;;;;;;9.23;56.86;101667.52;109901;1241;60177;-70
2023/05/03 01:40:54;;;;;;;4.40;1.90;;;;;;;9.16;57.14;101670.30;109919;1242;57755;-69
2023/05/03 01:43:23;;;;;;;3.60;2.40;;;;;;;9.10;56.89;101673.23;109898;1242;62928;-70
2023/05/03 01:45:52;;;;;;;3.20;2.00;;;;;;;9.03;56.51;101669.41;109932;1240;61621;-70
2023/05/03 01:48:21;;;;;;;4.90;2.10;;;;;;;9.00;57.07;101671.45;110079;1238;59329;-70
2023/05/03 01:50:50;;;;;;;3.90;1.90;;;;;;;8.96;57.43;101669.95;110063;1239;63095;-70
2023/05/03 01:53:19;;;;;;;4.50;2.00;;;;;;;8.89;58.35;101671.52;110011;1238;59721;-70
2023/05/03 01:55:47;;;;;;;3.90;2.20;;;;;;;8.84;58.57;101672.80;110024;1238;57708;-70
2023/05/03 01:58:16;;;;;;;4.50;2.30;;;;;;;8.76;59.61;101680.14;110064;1241;63697;-69
2023/05/03 02:00:48;;;;;;;4.60;2.20;;;;;;;8.67;59.95;101681.63;109973;1238;72064;-69
2023/05/03 02:03:17;;;;;;;3.70;2.60;;;;;;;8.56;60.78;101683.54;109814;1238;69971;-69
2023/05/03 02:05:47;;;;;;;6.70;2.50;;;;;;;8.47;61.17;101690.23;109979;1239;64350;-69
2023/05/03 02:08:16;;;;;;;7.20;3.70;;;;;;;8.39;61.37;101695.14;109857;1244;59662;-71
2023/05/03 02:10:44;;;;;;;10.30;4.30;;;;;;;8.34;60.83;101698.46;110069;1238;61028;-71
2023/05/03 02:13:13;;;;;;;6.90;3.10;;;;;;;8.28;61.53;101698.55;109925;1242;63670;-71
2023/05/03 02:15:42;;;;;;;8.20;3.20;;;;;;;8.23;60.05;101698.30;110057;1238;60914;-71
2023/05/03 02:18:11;;;;;;;6.80;3.00;;;;;;;8.19;58.51;101696.92;109922;1241;69107;-69
2023/05/03 02:20:43;;;;;;;6.90;3.00;;;;;;;8.16;59.09;101696.69;109844;1242;74853;-69
2023/05/03 02:23:13;;;;;;;4.80;2.90;;;;;;;8.13;59.77;101698.39;109883;1242;57803;-69
2023/05/03 02:25:41;;;;;;;5.60;2.90;;;;;;;8.11;61.20;101696.77;109992;1241;60956;-69
2023/05/03 02:28:10;;;;;;;4.70;2.50;;;;;;;8.09;61.80;101693.58;109932;1238;63379;-68
2023/05/03 02:30:39;;;;;;;7.20;2.90;;;;;;;8.06;61.82;101691.64;110036;1241;60834;-70
2023/05/03 02:33:08;;;;;;;5.40;2.50;;;;;;;8.05;62.02;101690.46;110009;1241;60002;-70
2023/05/03 02:35:37;;;;;;;4.10;2.20;;;;;;;8.03;60.71;101691.27;109894;1242;63425;-69
2023/05/03 02:38:06;;;;;;;3.60;2.30;;;;;;;7.99;60.57;101688.80;109882;1242;59219;-69
2023/05/03 02:40:35;;;;;;;7.70;3.60;;;;;;;7.97;61.76;101689.95;109982;1240;61559;-70
2023/05/03 02:43:04;;;;;;;7.60;2.90;;;;;;;7.94;60.62;101692.51;109994;1238;66543;-70
2023/05/03 02:45:35;;;;;;;7.90;3.50;;;;;;;7.91;60.78;101686.24;109895;1242;70868;-69
2023/05/03 02:48:04;;;;;;;8.90;3.40;;;;;;;7.87;60.88;101684.35;109902;1241;59036;-70
2023/05/03 02:50:33;;;;;;;9.80;4.00;;;;;;;7.84;63.18;101681.38;109772;1239;63583;-69
2023/05/03 02:53:03;;;;;;;6.70;3.10;;;;;;;7.81;64.00;101682.16;109766;1242;57805;-69
2023/05/03 02:55:32;;;;;;;7.30;3.30;;;;;;;7.82;63.51;101681.44;109883;1238;60985;-70
2023/05/03 02:58:01;;;;;;;6.80;3.10;;;;;;;7.83;62.98;101681.94;109921;1241;72102;-70
2023/05/03 03:00:30;;;;;;;10.90;3.00;;;;;;;7.85;63.07;101681.14;109881;1238;73287;-71
2023/05/03 03:02:58;;;;;;;5.70;2.70;;;;;;;7.91;62.76;101682.05;109939;1238;60258;-70
2023/05/03 03:05:27;;;;;;;10.40;3.00;;;;;;;8.05;62.26;101685.79;109903;1242;73231;-69
2023/05/03 03:07:56;;;;;;;8.10;3.10;;;;;;;8.03;62.62;101685.70;109903;1238;59335;-69
2023/05/03 03:10:26;;;;;;;12.00;3.40;;;;;;;8.02;62.78;101686.60;109959;1238;58285;-69
2023/05/03 03:12:55;;;;;;;8.40;3.50;;;;;;;8.05;62.79;101688.91;109971;1239;74369;-70
2023/05/03 03:15:27;;;;;;;6.50;3.10;;;;;;;8.03;62.96;101689.35;109957;1241;61147;-69
2023/05/03 03:17:57;;;;;;;7.00;3.30;;;;;;;8.01;63.54;101684.72;109877;1238;70521;-69
2023/05/03 03:20:26;;;;;;;11.00;3.10;;;;;;;8.05;63.04;101686.11;109956;1238;73556;-68
2023/05/03 03:22:55;;;;;;;11.00;3.80;;;;;;;8.21;61.55;101685.04;109750;1238;59846;-69
2023/05/03 03:25:23;;;;;;;6.60;3.50;;;;;;;8.36;61.00;101686.10;109974;1241;58298;-69
2023/05/03 03:27:52;;;;;;;6.90;2.80;;;;;;;8.43;60.47;101685.77;109775;1238;73498;-69
2023/05/03 03:30:21;;;;;;;7.50;2.90;;;;;;;8.43;60.56;101689.19;109979;1242;61356;-69
2023/05/03 03:32:58;;;;;;;7.20;3.50;;;;;;;8.46;60.77;101690.62;109897;1238;61020;-69
2023/05/03 03:35:31;;;;;;;6.50;3.20;;;;;;;8.49;60.70;101703.33;109743;1241;72514;-69
2023/05/03 03:38:00;;;;;;;10.50;3.50;;;;;;;8.52;60.40;101707.38;109840;1241;59829;-68
2023/05/03 03:40:29;;;;;;;8.30;3.00;;;;;;;8.58;60.27;101709.87;109846;1238;61776;-68
2023/05/03 03:42:58;;;;;;;12.50;3.20;;;;;;;8.59;60.02;101708.59;109596;1238;74769;-68
2023/05/03 03:45:26;;;;;;;7.10;3.20;;;;;;;8.64;59.91;101701.05;109732;1238;72040;-69
2023/05/03 03:47:56;;;;;;;10.40;3.90;;;;;;;8.69;59.70;101699.92;109958;1242;60339;-70
2023/05/03 03:50:26;;;;;;;10.00;3.60;;;;;;;8.75;59.25;101703.64;109964;1241;73907;-69
2023/05/03 03:52:54;;;;;;;7.60;3.40;;;;;;;8.82;59.14;101706.92;109861;1238;61163;-69
2023/05/03 03:55:23;;;;;;;10.40;3.60;;;;;;;8.89;59.16;101708.52;109788;1243;58335;-70
2023/05/03 03:57:52;;;;;;;12.30;4.10;;;;;;;8.91;58.89;101707.22;109885;1241;73546;-70
2023/05/03 04:00:22;;;;;;;12.20;3.90;;;;;;;8.96;58.89;101712.34;109922;1237;62172;-69
2023/05/03 04:02:52;;;;;;;9.10;3.70;;;;;;;9.04;58.86;101710.38;109973;1241;60332;-69
2023/05/03 04:05:21;;;;;;;13.00;4.20;;;;;;;9.11;58.42;101711.78;109938;1242;63259;-70
2023/05/03 04:07:50;;;;;;;9.40;3.30;;;;;;;9.19;58.08;101713.41;109856;1238;60042;-68
2023/05/03 04:10:19;;;;;;;9.70;3.60;;;;;;;9.27;57.72;101714.06;109874;1242;61337;-68
2023/05/03 04:12:49;;;;;;;7.00;4.40;;;;;;;9.33;57.84;101711.33;109869;1238;75153;-68
2023/05/03 04:15:18;;;;;;;7.80;3.20;;;;;;;9.43;57.67;101717.09;109997;1238;71891;-68
2023/05/03 04:17:48;;;;;;;8.20;3.30;;;;;;;9.50;57.23;101721.25;109896;1238;70882;-68
2023/05/03 04:20:18;;;;;;;6.30;3.30;;;;;;;9.55;57.00;101722.34;109978;1238;75500;-69
2023/05/03 04:22:48;;;;;;;9.50;3.60;;;;;;;9.60;57.13;101723.88;109886;1241;58049;-72
2023/05/03 04:25:18;;;;;;;5.90;3.50;;;;;;;9.65;57.06;101725.32;109908;1238;60820;-69
2023/05/03 04:27:53;;;;;;;8.80;3.80;;;;;;;9.71;57.05;101725.70;109940;1241;74780;-71
2023/05/03 04:30:22;;;;;;;11.30;3.50;;;;;;;9.79;57.06;101726.67;109900;1238;72048;-71
2023/05/03 04:32:53;;;;;;;13.00;3.60;;;;;;;9.87;57.12;101729.38;109736;1242;60093;-71
2023/05/03 04:35:23;;;;;;;9.90;3.90;;;;;;;9.92;56.79;101728.40;109856;1239;73071;-71
2023/05/03 04:37:51;;;;;;;7.90;3.60;;;;;;;10.00;57.11;101732.14;109868;1238;61765;-71
2023/05/03 04:40:22;;;;;;;6.10;3.70;;;;;;;10.09;56.45;101735.87;109949;1242;61049;-71
2023/05/03 04:43:00;;;;;;;8.90;3.40;;;;;;;10.15;56.23;101741.60;110112;1238;73799;-71
2023/05/03 04:45:30;;;;;;;10.30;3.70;;;;;;;10.25;55.89;101746.49;110036;1241;61532;-71
2023/05/03 04:47:59;;;;;;;14.00;4.60;;;;;;;10.33;55.79;101749.35;109981;1239;59948;-70
2023/05/03 04:50:28;;;;;;;10.20;4.30;;;;;;;10.41;55.73;101752.95;109979;1239;63352;-71
2023/05/03 04:52:57;;;;;;;15.20;4.70;;;;;;;10.49;55.58;101757.76;110090;1238;58166;-71
2023/05/03 04:55:27;;;;;;;9.10;4.00;;;;;;;10.58;55.09;101753.77;109990;1241;58347;-70
2023/05/03 04:57:56;;;;;;;16.00;7.10;;;;;;;10.69;54.74;101754.67;109911;1242;74652;-71
2023/05/03 05:00:25;;;;;;;14.50;4.20;;;;;;;10.78;54.32;101755.23;109972;1242;62058;-70
2023/05/03 05:02:58;;;;;;;;;;;;;;;10.85;54.16;101755.33;109794;1242;60024;-70
2023/05/03 05:05:28;;;;;;;8.50;4.10;;;;;;;10.94;54.07;101758.85;109876;1239;64788;-71
2023/05/03 05:07:59;;;;;;;10.90;3.80;;;;;;;11.01;53.78;101761.44;109828;1238;61178;-71
2023/05/03 05:10:37;;;;;;;11.40;4.00;;;;;;;11.10;54.62;101760.71;109750;1241;60848;-71
2023/05/03 05:13:06;;;;;;;15.50;4.90;;;;;;;11.20;53.83;101758.27;109837;1240;74743;-71
2023/05/03 05:15:36;;;;;;;11.30;4.10;;;;;;;11.26;54.02;101755.61;109830;1241;72831;-71
2023/05/03 05:18:04;;;;;;;10.90;3.90;;;;;;;11.35;54.06;101757.83;110057;1239;71183;-71
2023/05/03 05:20:34;;;;;;;12.10;4.30;;;;;;;11.47;53.71;101757.70;109867;1240;64028;-71
2023/05/03 05:23:03;;;;;;;9.70;4.30;;;;;;;11.59;53.24;101755.05;109828;1242;58404;-71
2023/05/03 05:25:32;;;;;;;8.40;4.00;;;;;;;11.75;52.60;101756.54;109833;1242;57765;-71
2023/05/03 05:28:02;;;;;;;15.70;4.50;;;;;;;11.94;52.26;101753.27;109816;1240;74536;-71
2023/05/03 05:30:31;;;;;;;9.50;5.40;;;;;;;12.11;52.04;101755.92;109876;1241;61125;-70
2023/05/03 05:33:02;;;;;;;7.80;3.60;;;;;;;12.28;51.17;101754.80;109961;1239;60004;-70
2023/05/03 05:35:32;;;;;;;6.70;3.60;;;;;;;12.43;51.01;101756.35;109944;1241;63492;-70
2023/05/03 05:38:01;;;;;;;7.20;3.50;;;;;;;12.52;50.42;101761.22;109811;1239;58337;-72
2023/05/03 05:40:30;;;;;;;9.20;4.20;;;;;;;12.64;49.99;101763.02;109978;1237;57750;-73
2023/05/03 05:43:00;;;;;;;9.50;3.60;;;;;;;12.77;49.55;101765.49;110077;1239;64055;-71
2023/05/03 05:45:30;;;;;;;9.80;3.70;;;;;;;12.92;49.54;101768.93;109963;1238;61661;-73
2023/05/03 05:47:59;;;;;;;11.10;3.70;;;;;;;13.04;49.57;101768.84;110032;1238;59945;-73
2023/05/03 05:50:30;;;;;;;5.00;3.10;;;;;;;13.15;48.55;101764.55;109744;1238;73048;-73
2023/05/03 05:53:02;;;;;;;10.40;3.60;;;;;;;13.17;48.35;101770.02;109889;1238;58350;-73
2023/05/03 05:55:35;;;;;;;9.50;4.20;;;;;;;13.29;48.46;101773.80;109848;1238;61034;-73
2023/05/03 05:58:04;;;;;;;10.20;3.50;;;;;;;13.44;48.42;101773.65;109839;1240;74860;-72
2023/05/03 06:00:40;;;;;;;11.00;4.20;;;;;;;13.59;48.07;101773.19;109953;1242;61291;-73
2023/05/03 06:03:09;;;;;;;9.40;3.90;;;;;;;13.68;47.84;101773.47;110013;1238;59795;-72
2023/05/03 06:05:38;;;;;;;10.20;4.40;;;;;;;13.77;48.05;101772.85;110078;1241;63049;-72
2023/05/03 06:08:10;;;;;;;10.50;3.90;;;;;;;13.92;47.62;101772.84;109971;1241;58202;-72
2023/05/03 06:10:39;;;;;;;8.60;4.30;;;;;;;14.08;47.37;101768.95;110012;1238;58327;-72
2023/05/03 06:13:08;;;;;;;8.50;3.90;;;;;;;14.23;47.48;101771.86;109908;1238;74000;-73
2023/05/03 06:15:39;;;;;;;10.60;4.20;;;;;;;14.35;46.77;101769.61;109806;1238;62124;-73
2023/05/03 06:18:08;;;;;;;11.40;3.20;;;;;;;14.49;46.31;101767.73;109890;1238;59828;-72
2023/05/03 06:20:37;;;;;;;8.60;3.50;;;;;;;14.59;45.76;101767.89;110039;1238;63040;-72
2023/05/03 06:23:06;;;;;;;7.80;3.70;;;;;;;14.65;45.44;101767.86;109913;1241;61090;-72
2023/05/03 06:25:37;;;;;;;5.70;3.60;;;;;;;14.73;45.46;101767.83;109954;1238;61460;-74
2023/05/03 06:28:06;;;;;;;7.80;3.30;;;;;;;14.84;45.35;101768.23;109970;1238;74147;-73
2023/05/03 06:30:36;;;;;;;7.60;3.50;;;;;;;15.03;44.96;101767.14;110015;1238;69565;-72
2023/05/03 06:33:12;;;;;;;7.50;3.60;;;;;;;15.10;44.88;101765.20;110059;1238;59551;-72
2023/05/03 06:35:42;;;;;;;7.60;3.40;;;;;;;15.25;44.81;101757.77;109936;1239;63249;-74
2023/05/03 06:38:11;;;;;;;8.50;4.10;;;;;;;15.42;44.78;101760.49;109994;1241;58406;-72
2023/05/03 06:40:40;;;;;;;8.40;3.20;;;;;;;15.62;44.18;101756.91;110035;1238;59467;-73
2023/05/03 06:43:09;;;;;;;16.10;3.80;;;;;;;15.81;43.66;101750.18;109795;1242;75251;-74
2023/05/03 06:45:43;;;;;;;10.70;3.40;;;;;;;15.88;43.69;101752.55;109915;1238;72457;-74
2023/05/03 06:48:12;;;;;;;4.30;2.80;;;;;;;15.99;43.45;101758.09;109734;1238;70410;-72
2023/05/03 06:50:41;;;;;;;7.30;3.30;;;;;;;15.97;43.14;101754.40;109967;1241;74217;-71
2023/05/03 06:53:09;;;;;;;9.10;3.10;;;;;;;16.19;42.93;101754.77;109990;1238;61583;-73
2023/05/03 06:55:38;;;;;;;6.30;2.80;;;;;;;16.34;42.53;101759.70;109790;1238;58293;-72
2023/05/03 06:58:10;;;;;;;4.60;2.70;;;;;;;16.40;42.16;101758.27;109898;1238;63767;-72
2023/05/03 07:00:39;;;;;;;7.60;3.30;;;;;;;16.51;41.74;101754.10;110010;1241;70418;-73
2023/05/03 07:03:08;;;;;;;6.20;3.20;;;;;;;16.58;41.50;101751.74;110023;1238;59398;-73
2023/05/03 07:05:37;;;;;;;8.90;3.50;;;;;;;16.74;41.14;101749.44;110042;1238;63140;-73
2023/05/03 07:08:06;;;;;;;4.20;2.40;;;;;;;16.92;40.76;101753.21;109928;1239;60376;-73
2023/05/03 07:10:35;;;;;;;4.60;2.20;;;;;;;17.10;39.43;101748.77;110032;1238;61106;-72
2023/05/03 07:13:04;;;;;;;5.60;2.90;;;;;;;17.09;39.34;101748.98;109954;1238;75435;-73
2023/05/03 07:15:32;;;;;;;8.50;3.60;;;;;;;17.14;39.31;101750.52;110033;1238;71916;-73
2023/05/03 07:18:01;;;;;;;7.60;2.70;;;;;;;17.13;38.37;101744.47;109968;1238;59543;-73
2023/05/03 07:20:30;;;;;;;5.00;2.60;;;;;;;17.46;37.80;101741.61;109937;1238;73761;-72
2023/05/03 07:23:00;;;;;;;9.10;3.20;;;;;;;17.60;37.96;101741.35;109943;1241;58210;-73
2023/05/03 07:25:29;;;;;;;5.20;2.30;;;;;;;17.68;37.08;101740.95;110083;1239;58273;-73
2023/05/03 07:27:59;;;;;;;8.30;3.00;;;;;;;17.35;36.26;101741.56;109785;1238;63924;-73
2023/05/03 07:30:28;;;;;;;6.90;2.90;;;;;;;17.63;36.64;101746.92;110056;1238;71475;-73
2023/05/03 07:32:57;;;;;;;6.00;2.80;;;;;;;17.79;36.00;101744.69;110047;1238;70682;-74
2023/05/03 07:35:26;;;;;;;7.40;3.60;;;;;;;17.89;35.83;101742.02;109994;1238;73281;-74
2023/05/03 07:37:55;;;;;;;5.60;2.60;;;;;;;18.18;35.68;101736.50;109776;1241;60016;-72
2023/05/03 07:40:24;;;;;;;7.80;2.30;;;;;;;18.12;34.33;101734.54;109999;1238;57720;-74
2023/05/03 07:42:53;;;;;;;7.00;2.90;;;;;;;18.20;33.78;101733.41;109979;1238;64115;-74
2023/05/03 07:45:22;;;;;;;5.80;3.40;;;;;;;18.47;33.68;101729.94;109911;1238;72756;-73
2023/05/03 07:47:51;;;;;;;8.30;3.90;;;;;;;18.55;33.38;101733.87;109997;1238;59522;-73
2023/05/03 07:50:20;;;;;;;21.60;8.10;;;;;;;18.75;32.80;101733.98;110006;1238;63213;-73
2023/05/03 07:52:50;;;;;;;9.10;4.70;;;;;;;18.74;33.32;101733.77;109735;1238;60389;-74
2023/05/03 07:55:19;;;;;;;4.20;2.30;;;;;;;18.85;32.55;101734.71;109671;1241;334706;-74
2023/05/03 07:57:49;;;;;;;6.20;2.70;;;;;;;18.93;31.70;101735.41;109846;1238;63943;-74
2023/05/03 08:00:19;;;;;;;14.80;5.90;;;;;;;19.06;32.09;101732.80;110003;1238;61658;-73
2023/05/03 08:02:47;;;;;;;20.30;9.00;;;;;;;18.96;32.15;101734.01;109918;1238;60559;-73
2023/05/03 08:05:16;;;;;;;5.50;3.30;;;;;;;19.01;31.45;101732.42;109938;1238;62513;-73
2023/05/03 08:07:45;;;;;;;7.90;2.00;;;;;;;18.87;31.56;101733.13;109980;1241;61028;-73
2023/05/03 08:10:15;;;;;;;4.10;2.10;;;;;;;18.94;31.48;101739.56;109906;1242;57757;-73
2023/05/03 08:12:44;;;;;;;7.00;2.10;;;;;;;18.83;30.29;101737.16;109774;1238;74988;-73
2023/05/03 08:15:13;;;;;;;4.80;2.30;;;;;;;18.94;30.52;101737.60;110009;1238;62172;-72
2023/05/03 08:17:44;;;;;;;16.80;8.00;;;;;;;19.22;30.86;101735.23;110011;1238;69579;-73
2023/05/03 08:20:13;;;;;;;18.70;10.30;;;;;;;19.33;30.90;101736.31;109879;1238;74188;-73
2023/05/03 08:22:44;;;;;;;12.60;6.60;;;;;;;19.36;30.85;101735.42;109872;1241;60869;-73
2023/05/03 08:25:12;;;;;;;11.30;5.20;;;;;;;19.58;31.10;101737.10;109970;1238;61790;-73
2023/05/03 08:27:41;;;;;;;7.10;2.30;;;;;;;19.67;30.99;101734.35;109966;1238;64571;-73
2023/05/03 08:30:10;;;;;;;22.20;7.40;;;;;;;19.88;30.08;101732.34;109983;1238;60857;-73
2023/05/03 08:32:39;;;;;;;6.50;2.60;;;;;;;19.74;28.82;101736.63;110000;1238;60013;-75
2023/05/03 08:35:08;;;;;;;6.30;2.00;;;;;;;19.54;28.84;101732.54;109899;1238;73298;-73
2023/05/03 08:37:42;;;;;;;13.60;2.40;;;;;;;19.49;28.53;101731.11;109811;1240;57820;-74
2023/05/03 08:40:12;;;;;;;3.70;1.90;;;;;;;19.55;28.83;101735.80;109830;1238;61287;-73
2023/05/03 08:42:45;;;;;;;5.40;2.10;;;;;;;19.70;29.08;101735.60;109833;1238;64197;-73
2023/05/03 08:45:15;;;;;;;5.60;1.90;;;;;;;19.85;29.16;101728.05;109831;1238;71215;-73
2023/05/03 08:47:45;;;;;;;7.90;2.00;;;;;;;19.89;28.60;101730.30;109724;1238;60365;-73
2023/05/03 08:50:14;;;;;;;5.90;2.10;;;;;;;19.95;28.30;101729.38;109703;1239;73911;-73
2023/05/03 08:52:43;;;;;;;4.70;1.60;;;;;;;20.07;28.17;101729.75;109823;1240;58278;-74
2023/05/03 08:55:12;;;;;;;7.70;1.90;;;;;;;20.16;28.44;101726.44;109753;1241;57738;-74
2023/05/03 08:57:41;;;;;;;3.20;1.90;;;;;;;20.20;28.30;101726.19;109661;1242;63792;-74
2023/05/03 09:00:11;;;;;;;4.00;1.40;;;;;;;20.26;27.47;101723.04;109894;1239;60883;-74
2023/05/03 09:02:40;;;;;;;3.40;1.50;;;;;;;20.38;27.21;101720.77;109985;1238;70452;-74
2023/05/03 09:05:15;;;;;;;3.70;1.40;;;;;;;20.48;27.16;101727.89;109961;1240;74483;-74
2023/05/03 09:08:02;;;;;;;9.40;1.90;;;;;;;20.45;26.83;101727.51;110007;1241;58382;-73
2023/05/03 09:10:35;;;;;;;6.20;2.00;;;;;;;20.81;27.04;101718.84;110017;1238;57773;-74
2023/05/03 09:13:06;;;;;;;6.60;1.70;;;;;;;20.80;26.92;101721.35;109882;1242;63757;-73
2023/05/03 09:15:35;;;;;;;5.90;1.40;;;;;;;20.46;27.11;101722.84;109969;1238;70364;-73
2023/05/03 09:18:12;;;;;;;7.70;2.40;;;;;;;20.54;26.70;101725.39;109908;1238;71624;-74
2023/05/03 09:20:49;;;;;;;3.60;2.00;;;;;;;20.83;26.85;101722.52;110035;1238;72333;-73
2023/05/03 09:23:24;;;;;;;9.40;2.50;;;;;;;21.20;26.55;101719.10;109935;1238;59428;-74
2023/05/03 09:25:53;;;;;;;9.20;2.30;;;;;;;21.32;25.23;101720.73;109996;1238;61479;-74
2023/05/03 09:28:22;;;;;;;7.00;2.20;;;;;;;20.89;24.95;101715.85;109847;1242;63034;-73
2023/05/03 09:31:08;;;;;;;8.20;2.40;;;;;;;20.63;24.95;101708.99;109774;1243;60897;-73
2023/05/03 09:33:40;;;;;;;8.10;2.20;;;;;;;21.07;24.76;101707.21;109962;1238;70456;-74
2023/05/03 09:36:10;;;;;;;4.80;1.90;;;;;;;21.26;25.07;101700.78;110022;1238;74354;-74
2023/05/03 09:38:39;;;;;;;7.90;2.10;;;;;;;21.43;23.79;101704.60;110034;1239;61621;-73
2023/05/03 09:41:07;;;;;;;5.40;1.80;;;;;;;21.19;23.80;101697.48;109893;1238;61674;-74
2023/05/03 09:43:49;;;;;;;6.10;2.20;;;;;;;21.49;23.73;101707.15;110020;1240;64545;-73
2023/05/03 09:46:18;;;;;;;6.40;2.00;;;;;;;21.57;23.69;101703.31;109921;1238;71857;-74
2023/05/03 09:48:48;;;;;;;6.90;2.10;;;;;;;21.77;23.17;101701.00;110007;1238;70929;-74
2023/05/03 09:51:18;;;;;;;7.20;1.90;;;;;;;21.99;23.21;101702.27;110058;1238;62765;-74
2023/05/03 09:53:47;;;;;;;3.50;1.50;;;;;;;21.73;23.30;101695.67;110034;1239;57918;-74
2023/05/03 09:56:19;;;;;;;6.20;1.90;;;;;;;21.73;23.26;101693.85;109964;1240;58518;-74
2023/05/03 09:58:48;;;;;;;5.50;1.80;;;;;;;21.89;23.65;101698.85;109992;1238;63139;-74
2023/05/03 10:01:17;;;;;;;3.50;1.80;;;;;;;21.94;23.93;101699.80;109972;1238;71167;-75
2023/05/03 10:03:58;;;;;;;9.10;2.00;;;;;;;21.66;24.85;101698.99;109976;1238;59384;-73
2023/05/03 10:06:35;;;;;;;5.90;1.90;;;;;;;21.90;25.31;101703.08;109936;1239;73018;-73
2023/05/03 10:09:19;;;;;;;4.60;2.00;;;;;;;22.03;25.32;101700.60;109896;1238;60792;-74
2023/05/03 10:11:57;;;;;;;5.20;2.60;;;;;;;22.18;24.74;101693.41;109886;1238;60733;-74
2023/05/03 10:14:26;;;;;;;7.00;2.20;;;;;;;22.16;24.78;101688.06;109996;1239;63552;-73
2023/05/03 10:17:03;;;;;;;9.50;2.60;;;;;;;21.61;25.67;101685.67;109985;1238;71430;-73
2023/05/03 10:19:45;;;;;;;6.70;1.90;;;;;;;21.20;26.42;101683.57;109996;1237;70701;-73
2023/05/03 10:22:13;;;;;;;5.50;1.90;;;;;;;21.45;26.86;101687.59;109936;1238;74556;-73
2023/05/03 10:25:01;;;;;;;5.80;2.20;;;;;;;21.93;26.36;101693.84;109830;1241;58345;-73
2023/05/03 10:27:45;;;;;;;4.90;2.50;;;;;;;22.26;25.70;101688.45;109963;1239;57676;-74
2023/05/03 10:30:27;;;;;;;3.70;1.80;;;;;;;22.64;25.56;101687.70;109977;1237;73615;-74
2023/05/03 10:32:56;;;;;;;4.80;1.90;;;;;;;22.61;26.03;101689.88;109864;1240;62004;-73
2023/05/03 10:35:28;;;;;;;5.60;2.00;;;;;;;22.74;26.07;101687.14;109725;1238;69325;-75
2023/05/03 10:37:57;;;;;;;4.50;1.90;;;;;;;23.26;25.76;101682.84;109622;1244;63685;-73
2023/05/03 10:40:42;;;;;;;4.60;1.90;;;;;;;23.47;25.05;101681.08;109917;1238;60408;-73
2023/05/03 10:43:29;;;;;;;4.30;1.90;;;;;;;23.25;24.98;101678.75;109964;1240;61638;-74
2023/05/03 10:46:07;;;;;;;9.80;2.10;;;;;;;23.55;24.59;101670.05;110070;1237;75259;-74
2023/05/03 10:48:36;;;;;;;8.70;1.80;;;;;;;23.69;24.49;101675.91;109816;1242;62028;-73
2023/05/03 10:51:35;;;;;;;7.50;1.90;;;;;;;23.31;24.40;101674.63;110028;1241;60360;-74
2023/05/03 10:54:04;;;;;;;5.90;1.80;;;;;;;23.20;24.31;101666.90;109984;1238;72977;-74
2023/05/03 10:56:46;;;;;;;3.50;1.70;;;;;;;23.43;24.24;101664.46;110080;1239;58314;-73
2023/05/03 10:59:15;;;;;;;4.60;1.90;;;;;;;23.64;24.23;101655.50;110018;1241;57784;-74
2023/05/03 11:01:46;;;;;;;5.40;1.80;;;;;;;23.64;24.10;101649.33;110105;1239;62922;-73
2023/05/03 11:04:40;;;;;;;7.70;1.70;;;;;;;23.69;23.77;101651.61;110000;1237;71452;-73
2023/05/03 11:07:09;;;;;;;8.90;2.00;;;;;;;23.87;23.93;101652.77;109990;1238;59872;-74
2023/05/03 11:09:38;;;;;;;5.60;1.70;;;;;;;23.65;24.35;101649.17;110065;1239;62694;-74
2023/05/03 11:12:07;;;;;;;8.70;1.50;;;;;;;24.12;23.97;101647.86;110032;1239;61112;-74
2023/05/03 11:14:38;;;;;;;4.50;1.50;;;;;;;24.44;23.49;101646.73;110102;1238;57735;-73
2023/05/03 11:17:12;;;;;;;10.00;2.20;;;;;;;24.98;22.97;101645.77;110000;1237;62937;-73
2023/05/03 11:19:43;;;;;;;6.30;1.70;;;;;;;24.94;22.77;101642.52;109752;1242;61637;-73
2023/05/03 11:22:12;;;;;;;6.00;1.30;;;;;;;24.29;22.85;101642.17;109731;1242;59990;-73
2023/05/03 11:24:41;;;;;;;3.50;1.20;;;;;;;24.72;22.37;101635.54;109812;1241;63267;-73
2023/05/03 11:27:15;;;;;;;8.50;1.60;;;;;;;24.81;22.62;101631.74;109888;1238;60467;-74
2023/05/03 11:29:48;;;;;;;8.90;2.00;;;;;;;25.07;22.91;101632.59;109913;1239;60291;-74
2023/05/03 11:32:18;;;;;;;3.30;1.60;;;;;;;25.90;22.30;101631.80;109809;1237;74132;-73
2023/05/03 11:34:47;;;;;;;6.70;1.70;;;;;;;24.72;23.49;101627.91;109784;1241;71775;-74
2023/05/03 11:37:15;;;;;;;3.10;1.40;;;;;;;25.11;22.81;101631.21;109808;1238;70426;-74